createdAt,value
2018-11-11T00:01:37.036Z,8.50
2018-11-11T00:04:05.266Z,8.50
2018-11-11T00:06:32.910Z,8.50
2018-11-11T00:09:00.331Z,8.50
2018-11-11T00:11:27.706Z,8.50
2018-11-11T00:13:55.294Z,8.50
2018-11-11T00:16:22.758Z,8.40
2018-11-11T00:18:50.180Z,8.40
2018-11-11T00:21:17.716Z,8.50
2018-11-11T00:23:45.268Z,8.50
2018-11-11T00:26:12.761Z,8.50
2018-11-11T00:28:40.212Z,8.60
2018-11-11T00:31:07.782Z,8.60
2018-11-11T00:33:35.300Z,8.60
2018-11-11T00:36:02.745Z,8.60
2018-11-11T00:38:30.294Z,8.60
2018-11-11T00:40:57.886Z,8.60
2018-11-11T00:43:25.330Z,8.50
2018-11-11T00:45:52.855Z,8.50
2018-11-11T00:48:20.232Z,8.50
2018-11-11T00:50:47.634Z,8.50
2018-11-11T00:53:18.350Z,8.50
2018-11-11T00:55:45.969Z,8.50
2018-11-11T00:58:13.466Z,8.50
2018-11-11T01:00:41.149Z,8.60
2018-11-11T01:03:08.524Z,8.60
2018-11-11T01:05:36.099Z,8.60
2018-11-11T01:08:03.613Z,8.60
2018-11-11T01:10:31.125Z,8.70
2018-11-11T01:12:58.651Z,8.60
2018-11-11T01:15:26.263Z,8.50
2018-11-11T01:17:53.823Z,8.50
2018-11-11T01:20:21.340Z,8.50
2018-11-11T01:22:48.781Z,8.50
2018-11-11T01:25:17.061Z,8.50
2018-11-11T01:27:44.657Z,8.60
2018-11-11T01:30:12.167Z,8.60
2018-11-11T01:32:39.712Z,8.50
2018-11-11T01:35:10.008Z,8.60
2018-11-11T01:37:37.662Z,8.60
2018-11-11T01:40:06.250Z,8.60
2018-11-11T01:42:33.771Z,8.60
2018-11-11T01:45:01.344Z,8.70
2018-11-11T01:47:28.868Z,8.70
2018-11-11T01:49:56.315Z,8.60
2018-11-11T01:52:23.850Z,8.60
2018-11-11T01:54:51.367Z,8.60
2018-11-11T01:57:19.595Z,8.60
2018-11-11T01:59:47.166Z,8.60
2018-11-11T02:02:14.580Z,8.60
2018-11-11T02:04:42.155Z,8.60
2018-11-11T02:07:09.635Z,8.60
2018-11-11T02:09:37.262Z,8.60
2018-11-11T02:12:04.937Z,8.60
2018-11-11T02:14:32.579Z,8.60
2018-11-11T02:17:00.159Z,8.60
2018-11-11T02:19:27.666Z,8.60
2018-11-11T02:21:55.099Z,8.60
2018-11-11T02:24:22.553Z,8.50
2018-11-11T02:26:50.908Z,8.50
2018-11-11T02:29:18.415Z,8.60
2018-11-11T02:31:45.918Z,8.70
2018-11-11T02:34:13.591Z,8.60
2018-11-11T02:36:41.141Z,8.60
2018-11-11T02:39:09.245Z,8.60
2018-11-11T02:41:36.723Z,8.60
2018-11-11T02:44:04.412Z,8.60
2018-11-11T02:46:31.871Z,8.60
2018-11-11T02:48:59.521Z,8.60
2018-11-11T02:51:27.003Z,8.60
2018-11-11T02:53:54.427Z,8.70
2018-11-11T02:56:21.956Z,8.70
2018-11-11T02:58:49.527Z,8.70
2018-11-11T03:01:17.083Z,8.70
2018-11-11T03:03:44.662Z,8.70
2018-11-11T03:06:12.113Z,8.70
2018-11-11T03:08:39.588Z,8.70
2018-11-11T03:11:07.026Z,8.60
2018-11-11T03:13:34.555Z,8.60
2018-11-11T03:16:02.731Z,8.70
2018-11-11T03:18:30.403Z,8.70
2018-11-11T03:20:57.826Z,8.70
2018-11-11T03:23:25.360Z,8.60
2018-11-11T03:25:52.746Z,8.60
2018-11-11T03:28:20.768Z,8.60
2018-11-11T03:30:48.403Z,8.60
2018-11-11T03:33:15.862Z,8.50
2018-11-11T03:35:43.289Z,8.50
2018-11-11T03:38:10.732Z,8.50
2018-11-11T03:40:38.248Z,8.50
2018-11-11T03:43:05.770Z,8.50
2018-11-11T03:45:33.138Z,8.50
2018-11-11T03:48:00.664Z,8.60
2018-11-11T03:50:28.084Z,8.50
2018-11-11T03:52:55.559Z,8.60
2018-11-11T03:55:23.091Z,8.60
2018-11-11T03:57:50.493Z,8.60
2018-11-11T04:00:17.949Z,8.60
2018-11-11T04:02:45.462Z,8.70
2018-11-11T04:05:14.602Z,8.60
2018-11-11T04:07:42.053Z,8.60
2018-11-11T04:10:12.152Z,8.60
2018-11-11T04:12:39.879Z,8.60
2018-11-11T04:15:09.148Z,8.70
2018-11-11T04:17:37.186Z,8.70
2018-11-11T04:20:05.917Z,8.70
2018-11-11T04:22:33.536Z,8.70
2018-11-11T04:25:01.009Z,8.70
2018-11-11T04:27:28.634Z,8.70
2018-11-11T04:29:56.098Z,8.70
2018-11-11T04:32:23.567Z,8.70
2018-11-11T04:34:51.013Z,8.70
2018-11-11T04:37:19.127Z,8.70
2018-11-11T04:39:46.702Z,8.70
2018-11-11T04:42:14.137Z,8.70
2018-11-11T04:44:41.568Z,8.60
2018-11-11T04:47:09.037Z,8.60
2018-11-11T04:49:36.619Z,8.60
2018-11-11T04:52:04.633Z,8.50
2018-11-11T04:54:31.996Z,8.50
2018-11-11T04:56:59.477Z,8.50
2018-11-11T04:59:26.953Z,8.60
2018-11-11T05:01:54.583Z,8.70
2018-11-11T05:04:22.204Z,8.70
2018-11-11T05:06:49.821Z,8.70
2018-11-11T05:09:17.323Z,8.70
2018-11-11T05:11:44.960Z,8.60
2018-11-11T05:14:12.441Z,8.70
2018-11-11T05:16:40.017Z,8.70
2018-11-11T05:19:08.928Z,8.70
2018-11-11T05:21:36.505Z,8.70
2018-11-11T05:24:04.881Z,8.70
2018-11-11T05:26:32.567Z,8.60
2018-11-11T05:29:00.027Z,8.70
2018-11-11T05:31:27.439Z,8.70
2018-11-11T05:33:54.839Z,8.70
2018-11-11T05:36:22.297Z,8.70
2018-11-11T05:38:50.813Z,8.60
2018-11-11T05:41:18.387Z,8.60
2018-11-11T05:43:45.857Z,8.70
2018-11-11T05:46:13.325Z,8.60
2018-11-11T05:48:40.801Z,8.60
2018-11-11T05:51:08.268Z,8.60
2018-11-11T05:53:35.722Z,8.50
2018-11-11T05:56:03.136Z,8.50
2018-11-11T05:58:30.607Z,8.40
2018-11-11T06:00:58.195Z,8.40
2018-11-11T06:03:25.626Z,8.30
2018-11-11T06:05:53.086Z,8.30
2018-11-11T06:08:20.558Z,8.30
2018-11-11T06:10:48.056Z,8.30
2018-11-11T06:13:15.520Z,8.30
2018-11-11T06:15:43.035Z,8.30
2018-11-11T06:18:10.528Z,8.30
2018-11-11T06:20:38.064Z,8.30
2018-11-11T06:23:05.769Z,8.30
2018-11-11T06:25:33.273Z,8.30
2018-11-11T06:28:00.824Z,8.30
2018-11-11T06:30:28.399Z,8.30
2018-11-11T06:32:55.924Z,8.30
2018-11-11T06:35:23.406Z,8.30
2018-11-11T06:37:51.086Z,8.30
2018-11-11T06:40:18.557Z,8.30
2018-11-11T06:42:46.028Z,8.30
2018-11-11T06:45:14.503Z,8.40
2018-11-11T06:47:42.934Z,8.40
2018-11-11T06:50:11.786Z,8.50
2018-11-11T06:52:40.140Z,8.50
2018-11-11T06:55:07.863Z,8.60
2018-11-11T06:57:35.527Z,8.50
2018-11-11T07:00:03.268Z,8.60
2018-11-11T07:02:36.225Z,8.70
2018-11-11T07:05:04.750Z,8.80
2018-11-11T07:07:32.209Z,8.80
2018-11-11T07:10:00.078Z,8.70
2018-11-11T07:12:28.678Z,8.70
2018-11-11T07:14:56.478Z,8.90
2018-11-11T07:17:24.814Z,9.00
2018-11-11T07:19:52.343Z,9.20
2018-11-11T07:22:19.978Z,9.30
2018-11-11T07:24:47.526Z,9.30
2018-11-11T07:27:15.181Z,9.40
2018-11-11T07:29:42.811Z,9.30
2018-11-11T07:32:10.328Z,9.30
2018-11-11T07:34:37.831Z,9.20
2018-11-11T07:37:05.416Z,9.20
2018-11-11T07:39:32.976Z,9.20
2018-11-11T07:42:00.640Z,9.20
2018-11-11T07:44:28.156Z,9.10
2018-11-11T07:46:55.747Z,9.10
2018-11-11T07:49:23.183Z,9.10
2018-11-11T07:51:50.631Z,9.10
2018-11-11T07:54:18.101Z,9.10
2018-11-11T07:56:45.508Z,9.10
2018-11-11T07:59:13.043Z,9.10
2018-11-11T08:01:40.604Z,9.10
2018-11-11T08:04:08.203Z,9.20
2018-11-11T08:06:35.663Z,9.20
2018-11-11T08:09:04.239Z,9.20
2018-11-11T08:11:43.229Z,9.20
2018-11-11T08:14:10.712Z,9.30
2018-11-11T08:16:38.347Z,9.30
2018-11-11T08:19:05.733Z,9.20
2018-11-11T08:21:33.199Z,9.20
2018-11-11T08:24:00.752Z,9.20
2018-11-11T08:26:28.333Z,9.20
2018-11-11T08:28:55.962Z,9.30
2018-11-11T08:31:23.387Z,9.40
2018-11-11T08:33:50.863Z,9.40
2018-11-11T08:36:18.338Z,9.30
2018-11-11T08:38:45.732Z,9.20
2018-11-11T08:41:13.257Z,9.20
2018-11-11T08:43:40.742Z,9.20
2018-11-11T08:46:08.244Z,9.10
2018-11-11T08:48:35.611Z,9.10
2018-11-11T08:51:03.027Z,9.20
2018-11-11T08:53:30.579Z,9.20
2018-11-11T08:55:58.519Z,9.30
2018-11-11T08:58:25.939Z,9.20
2018-11-11T09:00:53.386Z,9.30
2018-11-11T09:03:21.073Z,9.30
2018-11-11T09:05:48.664Z,9.30
2018-11-11T09:08:16.205Z,9.50
2018-11-11T09:10:43.825Z,9.80
2018-11-11T09:13:11.380Z,10.20
2018-11-11T09:15:38.839Z,10.30
2018-11-11T09:18:06.504Z,10.50
2018-11-11T09:20:34.040Z,10.40
2018-11-11T09:23:01.564Z,10.40
2018-11-11T09:25:29.183Z,10.80
2018-11-11T09:27:57.061Z,11.20
2018-11-11T09:30:24.607Z,11.50
2018-11-11T09:32:52.110Z,11.50
2018-11-11T09:35:19.903Z,11.80
2018-11-11T09:37:47.345Z,12.10
2018-11-11T09:40:14.854Z,12.50
2018-11-11T09:42:42.806Z,12.60
2018-11-11T09:45:12.249Z,12.70
2018-11-11T09:47:39.977Z,12.90
2018-11-11T09:50:09.790Z,13.40
2018-11-11T09:52:37.523Z,13.60
2018-11-11T09:55:06.030Z,13.80
2018-11-11T09:57:33.606Z,13.90
2018-11-11T10:00:01.185Z,13.80
2018-11-11T10:02:28.771Z,13.70
2018-11-11T10:05:05.604Z,14.00
2018-11-11T10:07:58.547Z,13.40
2018-11-11T10:10:30.291Z,13.20
2018-11-11T10:13:06.140Z,12.80
2018-11-11T10:15:42.544Z,13.20
2018-11-11T10:18:15.516Z,14.00
2018-11-11T10:20:49.136Z,14.70
2018-11-11T10:23:41.200Z,15.00
2018-11-11T10:26:21.458Z,14.90
2018-11-11T10:29:08.806Z,14.50
2018-11-11T10:31:40.745Z,14.60
2018-11-11T10:34:26.778Z,14.60
2018-11-11T10:36:59.960Z,14.40
2018-11-11T10:39:33.523Z,14.70
2018-11-11T10:42:05.899Z,15.40
2018-11-11T10:44:54.013Z,15.50
2018-11-11T10:47:25.668Z,15.40
2018-11-11T10:49:58.407Z,15.70
2018-11-11T10:52:25.888Z,16.00
2018-11-11T10:54:54.640Z,15.90
2018-11-11T10:57:22.112Z,16.20
2018-11-11T10:59:49.680Z,16.30
2018-11-11T11:02:19.303Z,16.30
2018-11-11T11:04:52.631Z,16.80
2018-11-11T11:07:20.916Z,17.00
2018-11-11T11:09:48.694Z,16.90
2018-11-11T11:12:16.255Z,16.60
2018-11-11T11:14:43.813Z,16.20
2018-11-11T11:17:11.489Z,15.70
2018-11-11T11:19:38.939Z,15.70
2018-11-11T11:22:06.795Z,16.30
2018-11-11T11:24:34.297Z,16.70
2018-11-11T11:27:01.952Z,16.70
2018-11-11T11:29:29.457Z,17.20
2018-11-11T11:31:57.879Z,17.40
2018-11-11T11:34:25.313Z,17.50
2018-11-11T11:36:52.903Z,16.90
2018-11-11T11:39:20.427Z,15.70
2018-11-11T11:41:47.952Z,15.20
2018-11-11T11:44:15.427Z,15.00
2018-11-11T11:46:43.082Z,15.10
2018-11-11T11:49:11.089Z,15.20
2018-11-11T11:51:38.901Z,14.80
2018-11-11T11:54:06.354Z,15.00
2018-11-11T11:56:33.868Z,15.90
2018-11-11T11:59:01.295Z,17.00
2018-11-11T12:01:28.843Z,17.30
2018-11-11T12:03:56.420Z,17.90
2018-11-11T12:06:23.890Z,18.50
2018-11-11T12:08:51.753Z,18.60
2018-11-11T12:11:19.160Z,19.30
2018-11-11T12:13:46.602Z,19.70
2018-11-11T12:16:14.258Z,20.40
2018-11-11T12:18:41.761Z,20.00
2018-11-11T12:21:09.324Z,19.70
2018-11-11T12:23:36.808Z,19.70
2018-11-11T12:26:04.569Z,20.50
2018-11-11T12:28:32.088Z,20.90
2018-11-11T12:30:59.824Z,22.00
2018-11-11T12:33:27.230Z,22.50
2018-11-11T12:35:54.709Z,23.30
2018-11-11T12:38:22.201Z,24.00
2018-11-11T12:40:49.695Z,24.10
2018-11-11T12:43:17.208Z,24.70
2018-11-11T12:45:44.642Z,24.70
2018-11-11T12:48:12.260Z,24.60
2018-11-11T12:50:39.744Z,25.10
2018-11-11T12:53:07.384Z,25.70
2018-11-11T12:55:34.990Z,25.80
2018-11-11T12:58:02.364Z,24.60
2018-11-11T13:00:29.856Z,24.30
2018-11-11T13:02:57.413Z,22.30
2018-11-11T13:05:24.867Z,22.00
2018-11-11T13:07:52.354Z,21.30
2018-11-11T13:10:20.105Z,20.20
2018-11-11T13:12:47.632Z,19.70
2018-11-11T13:15:15.218Z,19.20
2018-11-11T13:17:43.242Z,18.90
2018-11-11T13:20:16.724Z,18.90
2018-11-11T13:22:44.282Z,19.20
2018-11-11T13:25:12.536Z,19.00
2018-11-11T13:27:40.016Z,18.80
2018-11-11T13:30:09.413Z,19.10
2018-11-11T13:32:37.052Z,18.90
2018-11-11T13:35:06.228Z,18.40
2018-11-11T13:37:33.765Z,18.30
2018-11-11T13:40:01.244Z,17.90
2018-11-11T13:42:28.657Z,17.80
2018-11-11T13:44:56.154Z,17.80
2018-11-11T13:47:23.699Z,17.50
2018-11-11T13:49:51.432Z,17.00
2018-11-11T13:52:19.597Z,16.80
2018-11-11T13:54:47.870Z,16.50
2018-11-11T13:57:15.583Z,16.30
2018-11-11T13:59:43.171Z,16.30
2018-11-11T14:02:10.708Z,16.20
2018-11-11T14:04:38.189Z,15.90
2018-11-11T14:07:05.874Z,15.80
2018-11-11T14:09:33.548Z,15.90
2018-11-11T14:12:01.033Z,16.00
2018-11-11T14:14:28.567Z,16.00
2018-11-11T14:16:55.976Z,16.00
2018-11-11T14:19:23.635Z,15.90
2018-11-11T14:21:51.001Z,15.90
2018-11-11T14:24:18.399Z,15.90
2018-11-11T14:26:46.193Z,15.90
2018-11-11T14:29:13.809Z,15.80
2018-11-11T14:31:41.308Z,15.80
2018-11-11T14:34:08.730Z,15.60
2018-11-11T14:36:36.313Z,15.40
2018-11-11T14:39:08.346Z,15.20
2018-11-11T14:41:36.261Z,15.00
2018-11-11T14:44:04.020Z,15.00
2018-11-11T14:46:32.469Z,14.90
2018-11-11T14:49:00.149Z,14.90
2018-11-11T14:51:27.617Z,14.90
2018-11-11T14:53:55.019Z,14.90
2018-11-11T14:56:22.825Z,14.80
2018-11-11T14:58:50.576Z,14.70
2018-11-11T15:01:17.910Z,14.70
2018-11-11T15:03:45.522Z,14.60
2018-11-11T15:06:13.067Z,14.30
2018-11-11T15:08:40.652Z,14.20
2018-11-11T15:11:08.255Z,14.10
2018-11-11T15:13:35.764Z,14.00
2018-11-11T15:16:03.288Z,13.90
2018-11-11T15:18:30.839Z,13.70
2018-11-11T15:20:58.360Z,13.60
2018-11-11T15:23:25.800Z,13.60
2018-11-11T15:25:53.560Z,13.60
2018-11-11T15:28:20.998Z,13.50
2018-11-11T15:30:48.665Z,13.50
2018-11-11T15:33:16.087Z,13.60
2018-11-11T15:35:43.633Z,13.50
2018-11-11T15:38:11.331Z,13.40
2018-11-11T15:40:38.835Z,13.40
2018-11-11T15:43:06.451Z,13.40
2018-11-11T15:45:35.139Z,13.30
2018-11-11T15:48:03.316Z,13.20
2018-11-11T15:50:31.995Z,13.30
2018-11-11T15:53:01.086Z,13.30
2018-11-11T15:55:29.963Z,13.30
2018-11-11T15:57:57.564Z,13.30
2018-11-11T16:00:28.326Z,13.30
2018-11-11T16:02:56.004Z,13.20
2018-11-11T16:05:23.475Z,13.30
2018-11-11T16:07:51.770Z,13.30
2018-11-11T16:10:20.844Z,13.30
2018-11-11T16:12:48.595Z,13.20
2018-11-11T16:15:18.263Z,13.10
2018-11-11T16:17:46.879Z,13.10
2018-11-11T16:20:15.973Z,13.10
2018-11-11T16:22:44.816Z,13.10
2018-11-11T16:25:12.667Z,13.00
2018-11-11T16:27:41.135Z,13.00
2018-11-11T16:30:12.606Z,12.90
2018-11-11T16:32:40.438Z,12.80
2018-11-11T16:35:09.868Z,12.70
2018-11-11T16:37:37.971Z,12.60
2018-11-11T16:40:08.466Z,12.60
2018-11-11T16:42:36.308Z,12.70
2018-11-11T16:45:04.620Z,12.60
2018-11-11T16:47:32.086Z,12.60
2018-11-11T16:49:59.608Z,12.50
2018-11-11T16:52:27.081Z,12.50
2018-11-11T16:54:54.544Z,12.50
2018-11-11T16:57:22.345Z,12.50
2018-11-11T16:59:49.880Z,12.50
2018-11-11T17:02:17.442Z,12.40
2018-11-11T17:04:44.981Z,12.50
2018-11-11T17:07:12.674Z,12.50
2018-11-11T17:09:40.188Z,12.50
2018-11-11T17:12:07.800Z,12.40
2018-11-11T17:14:35.529Z,12.30
2018-11-11T17:17:03.140Z,12.30
2018-11-11T17:19:30.541Z,12.20
2018-11-11T17:21:58.295Z,12.20
2018-11-11T17:24:25.613Z,12.20
2018-11-11T17:26:53.490Z,12.20
2018-11-11T17:29:22.810Z,12.20
2018-11-11T17:31:52.472Z,12.30
2018-11-11T17:34:20.977Z,12.30
2018-11-11T17:36:48.494Z,12.30
2018-11-11T17:39:16.127Z,12.30
2018-11-11T17:41:43.874Z,12.30
2018-11-11T17:44:12.292Z,12.40
2018-11-11T17:46:39.800Z,12.40
2018-11-11T17:49:07.377Z,12.40
2018-11-11T17:51:34.890Z,12.40
2018-11-11T17:54:02.463Z,12.40
2018-11-11T17:56:30.347Z,12.40
2018-11-11T17:58:57.755Z,12.40
2018-11-11T18:01:25.376Z,12.30
2018-11-11T18:03:52.824Z,12.30
2018-11-11T18:06:20.231Z,12.30
2018-11-11T18:08:47.878Z,12.30
2018-11-11T18:11:15.732Z,12.30
2018-11-11T18:13:43.153Z,12.30
2018-11-11T18:16:10.803Z,12.20
2018-11-11T18:18:38.384Z,12.10
2018-11-11T18:21:05.991Z,12.10
2018-11-11T18:23:33.486Z,12.10
2018-11-11T18:26:01.036Z,12.00
2018-11-11T18:28:28.466Z,12.00
2018-11-11T18:30:56.106Z,12.00
2018-11-11T18:33:23.606Z,12.00
2018-11-11T18:35:51.472Z,12.00
2018-11-11T18:38:19.068Z,11.90
2018-11-11T18:40:46.518Z,11.90
2018-11-11T18:43:14.033Z,11.90
2018-11-11T18:45:41.561Z,11.80
2018-11-11T18:48:10.991Z,11.80
2018-11-11T18:50:42.143Z,11.70
2018-11-11T18:53:09.648Z,11.70
2018-11-11T18:55:37.118Z,11.70
2018-11-11T18:58:05.023Z,11.70
2018-11-11T19:00:33.578Z,11.80
2018-11-11T19:03:01.023Z,11.70
2018-11-11T19:05:29.157Z,11.70
2018-11-11T19:07:58.500Z,11.70
2018-11-11T19:10:27.326Z,11.70
2018-11-11T19:12:57.392Z,11.60
2018-11-11T19:15:25.192Z,11.50
2018-11-11T19:17:54.057Z,11.50
2018-11-11T19:20:22.920Z,11.50
2018-11-11T19:22:50.563Z,11.40
2018-11-11T19:25:19.572Z,11.40
2018-11-11T19:27:48.345Z,11.30
2018-11-11T19:30:17.002Z,11.30
2018-11-11T19:32:45.841Z,11.30
2018-11-11T19:35:14.656Z,11.40
2018-11-11T19:37:43.883Z,11.30
2018-11-11T19:40:14.208Z,11.20
2018-11-11T19:42:42.109Z,11.20
2018-11-11T19:45:10.886Z,11.20
2018-11-11T19:47:39.480Z,11.20
2018-11-11T19:50:09.513Z,11.20
2018-11-11T19:52:39.097Z,11.20
2018-11-11T19:55:07.912Z,11.10
2018-11-11T19:57:35.764Z,11.10
2018-11-11T20:00:03.416Z,11.10
2018-11-11T20:02:31.226Z,11.00
2018-11-11T20:04:59.451Z,11.00
2018-11-11T20:07:27.652Z,11.00
2018-11-11T20:09:55.144Z,11.00
2018-11-11T20:12:22.579Z,11.00
2018-11-11T20:14:50.208Z,10.90
2018-11-11T20:17:17.826Z,10.90
2018-11-11T20:19:45.377Z,10.90
2018-11-11T20:22:13.327Z,10.80
2018-11-11T20:24:41.871Z,10.80
2018-11-11T20:27:10.884Z,10.80
2018-11-11T20:29:38.623Z,10.80
2018-11-11T20:32:08.804Z,10.80
2018-11-11T20:34:36.526Z,10.80
2018-11-11T20:37:04.602Z,10.80
2018-11-11T20:39:32.062Z,10.70
2018-11-11T20:42:00.589Z,10.70
2018-11-11T20:44:28.282Z,10.80
2018-11-11T20:46:55.968Z,10.70
2018-11-11T20:49:23.583Z,10.60
2018-11-11T20:51:51.720Z,10.60
2018-11-11T20:54:19.226Z,10.60
2018-11-11T20:56:47.346Z,10.50
2018-11-11T20:59:15.895Z,10.50
2018-11-11T21:01:43.721Z,10.50
2018-11-11T21:04:11.932Z,10.50
2018-11-11T21:06:39.431Z,10.50
2018-11-11T21:09:10.368Z,10.50
2018-11-11T21:11:38.934Z,10.40
2018-11-11T21:14:08.433Z,10.40
2018-11-11T21:16:35.985Z,10.40
2018-11-11T21:19:03.636Z,10.40
2018-11-11T21:21:31.348Z,10.40
2018-11-11T21:23:58.758Z,10.40
2018-11-11T21:26:27.385Z,10.30
2018-11-11T21:28:56.081Z,10.20
2018-11-11T21:31:24.291Z,10.20
2018-11-11T21:33:52.365Z,10.20
2018-11-11T21:36:19.868Z,10.20
2018-11-11T21:38:47.930Z,10.10
2018-11-11T21:41:15.951Z,10.20
2018-11-11T21:43:44.769Z,10.10
2018-11-11T21:46:13.193Z,10.10
2018-11-11T21:48:41.008Z,10.10
2018-11-11T21:51:08.580Z,10.00
2018-11-11T21:53:38.406Z,10.00
2018-11-11T21:56:07.077Z,10.10
2018-11-11T21:58:34.733Z,10.00
2018-11-11T22:01:02.181Z,10.10
2018-11-11T22:03:29.773Z,10.00
2018-11-11T22:05:57.524Z,10.00
2018-11-11T22:08:25.721Z,10.00
2018-11-11T22:10:53.535Z,9.80
2018-11-11T22:13:22.326Z,9.80
2018-11-11T22:15:51.269Z,9.90
2018-11-11T22:18:19.665Z,9.90
2018-11-11T22:20:48.115Z,9.90
2018-11-11T22:23:16.479Z,9.80
2018-11-11T22:25:44.583Z,9.70
2018-11-11T22:28:13.508Z,9.70
2018-11-11T22:30:41.911Z,9.60
2018-11-11T22:33:10.292Z,9.80
2018-11-11T22:35:39.514Z,9.70
2018-11-11T22:38:07.356Z,9.70
2018-11-11T22:40:34.945Z,9.70
2018-11-11T22:43:02.615Z,9.70
2018-11-11T22:45:30.296Z,9.70
2018-11-11T22:47:57.797Z,9.70
2018-11-11T22:50:25.268Z,9.70
2018-11-11T22:52:52.743Z,9.70
2018-11-11T22:55:20.401Z,9.70
2018-11-11T22:57:47.949Z,9.70
2018-11-11T23:00:21.539Z,9.70
2018-11-11T23:02:49.591Z,9.80
2018-11-11T23:05:18.273Z,9.90
2018-11-11T23:07:45.879Z,9.80
2018-11-11T23:10:13.344Z,9.80
2018-11-11T23:12:40.864Z,9.80
2018-11-11T23:15:10.135Z,9.90
2018-11-11T23:17:37.607Z,9.90
2018-11-11T23:20:07.077Z,9.80
2018-11-11T23:22:34.571Z,9.90
2018-11-11T23:25:02.215Z,9.90
2018-11-11T23:27:29.715Z,10.00
2018-11-11T23:29:57.173Z,10.00
2018-11-11T23:32:24.570Z,10.00
2018-11-11T23:34:52.107Z,10.00
2018-11-11T23:37:19.608Z,10.00
2018-11-11T23:39:47.081Z,10.00
2018-11-11T23:42:14.659Z,9.90
2018-11-11T23:44:42.073Z,9.80
2018-11-11T23:47:10.296Z,9.70
2018-11-11T23:49:38.063Z,9.80
2018-11-11T23:52:06.194Z,9.90
2018-11-11T23:54:33.666Z,9.90
2018-11-11T23:57:01.271Z,9.80
2018-11-11T23:59:29.744Z,9.80
